createdAt,value
2019-05-03T00:00:43.259Z,10.60
2019-05-03T00:03:13.315Z,10.60
2019-05-03T00:05:45.956Z,10.60
2019-05-03T00:08:15.606Z,10.60
2019-05-03T00:10:45.009Z,10.50
2019-05-03T00:13:14.674Z,10.60
2019-05-03T00:15:52.809Z,10.60
2019-05-03T00:18:22.435Z,10.50
2019-05-03T00:20:52.697Z,10.50
2019-05-03T00:23:22.875Z,10.60
2019-05-03T00:25:52.479Z,10.60
2019-05-03T00:28:21.909Z,10.60
2019-05-03T00:30:52.047Z,10.50
2019-05-03T00:33:22.489Z,10.50
2019-05-03T00:36:08.012Z,10.50
2019-05-03T00:38:37.387Z,10.50
2019-05-03T00:41:06.783Z,10.50
2019-05-03T00:43:36.160Z,10.50
2019-05-03T00:46:06.174Z,10.50
2019-05-03T00:48:35.572Z,10.40
2019-05-03T00:51:04.962Z,10.40
2019-05-03T00:53:34.912Z,10.40
2019-05-03T00:56:04.318Z,10.40
2019-05-03T00:58:35.323Z,10.40
2019-05-03T01:01:04.922Z,10.40
2019-05-03T01:03:34.315Z,10.50
2019-05-03T01:06:03.758Z,10.50
2019-05-03T01:08:33.428Z,10.40
2019-05-03T01:11:02.835Z,10.40
2019-05-03T01:13:32.246Z,10.40
2019-05-03T01:16:11.859Z,10.40
2019-05-03T01:18:41.816Z,10.40
2019-05-03T01:21:11.703Z,10.40
2019-05-03T01:23:42.012Z,10.30
2019-05-03T01:26:11.983Z,10.30
2019-05-03T01:28:42.605Z,10.30
2019-05-03T01:31:12.086Z,10.30
2019-05-03T01:33:42.645Z,10.40
2019-05-03T01:36:12.141Z,10.40
2019-05-03T01:38:42.356Z,10.30
2019-05-03T01:41:12.311Z,10.30
2019-05-03T01:43:41.910Z,10.30
2019-05-03T01:46:12.025Z,10.30
2019-05-03T01:49:06.572Z,10.30
2019-05-03T01:51:52.684Z,10.30
2019-05-03T01:54:22.898Z,10.40
2019-05-03T01:56:58.769Z,10.30
2019-05-03T01:59:23.641Z,10.30
2019-05-03T02:02:12.236Z,10.40
2019-05-03T02:04:46.026Z,10.40
2019-05-03T02:07:15.419Z,10.40
2019-05-03T02:09:44.806Z,10.30
2019-05-03T02:12:14.757Z,10.30
2019-05-03T02:14:44.411Z,10.40
2019-05-03T02:17:14.151Z,10.40
2019-05-03T02:19:43.561Z,10.30
2019-05-03T02:22:12.947Z,10.30
2019-05-03T02:24:42.698Z,10.30
2019-05-03T02:27:12.740Z,10.30
2019-05-03T02:29:42.223Z,10.30
2019-05-03T02:32:13.205Z,10.30
2019-05-03T02:34:44.077Z,10.30
2019-05-03T02:37:14.142Z,10.30
2019-05-03T02:39:43.545Z,10.30
2019-05-03T02:42:15.721Z,10.20
2019-05-03T02:44:46.121Z,10.20
2019-05-03T02:47:30.258Z,10.20
2019-05-03T02:50:05.833Z,10.20
2019-05-03T02:52:36.586Z,10.20
2019-05-03T02:55:07.873Z,10.20
2019-05-03T02:57:37.313Z,10.20
2019-05-03T03:00:08.892Z,10.20
2019-05-03T03:02:39.629Z,10.20
2019-05-03T03:05:09.505Z,10.20
2019-05-03T03:07:40.432Z,10.10
2019-05-03T03:10:11.379Z,10.10
2019-05-03T03:12:46.218Z,10.10
2019-05-03T03:15:16.268Z,10.10
2019-05-03T03:17:47.363Z,10.10
2019-05-03T03:20:16.958Z,10.10
2019-05-03T03:22:49.083Z,10.10
2019-05-03T03:25:25.594Z,10.10
2019-05-03T03:27:58.671Z,10.10
2019-05-03T03:31:08.926Z,10.10
2019-05-03T03:33:40.329Z,10.10
2019-05-03T03:36:43.075Z,10.20
2019-05-03T03:38:40.981Z,10.10
2019-05-03T03:41:12.796Z,10.00
2019-05-03T03:43:46.077Z,10.10
2019-05-03T03:46:16.625Z,10.10
2019-05-03T03:48:46.876Z,10.00
2019-05-03T03:51:17.744Z,10.00
2019-05-03T03:53:48.784Z,10.00
2019-05-03T03:56:20.070Z,10.00
2019-05-03T03:58:49.545Z,10.00
2019-05-03T04:01:19.896Z,10.00
2019-05-03T04:03:49.290Z,10.00
2019-05-03T04:06:18.803Z,10.00
2019-05-03T04:08:48.487Z,10.00
2019-05-03T04:11:18.409Z,10.00
2019-05-03T04:13:48.029Z,9.90
2019-05-03T04:16:40.077Z,10.00
2019-05-03T04:19:14.139Z,10.00
2019-05-03T04:21:45.314Z,10.00
2019-05-03T04:24:16.258Z,10.00
2019-05-03T04:26:45.894Z,9.90
2019-05-03T04:29:16.192Z,10.00
2019-05-03T04:31:45.798Z,9.90
2019-05-03T04:34:16.174Z,10.00
2019-05-03T04:36:46.177Z,10.00
2019-05-03T04:39:19.973Z,10.00
2019-05-03T04:41:47.159Z,10.00
2019-05-03T04:44:16.535Z,9.90
2019-05-03T04:46:46.497Z,10.00
2019-05-03T04:49:16.285Z,10.00
2019-05-03T04:51:46.510Z,10.00
2019-05-03T04:54:25.242Z,10.00
2019-05-03T04:56:56.248Z,10.00
2019-05-03T04:59:25.770Z,10.00
2019-05-03T05:01:56.042Z,10.10
2019-05-03T05:04:25.804Z,10.00
2019-05-03T05:06:55.598Z,10.00
2019-05-03T05:09:25.843Z,10.00
2019-05-03T05:11:55.801Z,10.00
2019-05-03T05:14:25.925Z,10.00
2019-05-03T05:16:55.949Z,9.90
2019-05-03T05:19:36.050Z,9.80
2019-05-03T05:22:07.759Z,9.90
2019-05-03T05:24:37.140Z,9.90
2019-05-03T05:27:34.676Z,9.90
2019-05-03T05:30:07.843Z,9.80
2019-05-03T05:32:37.237Z,9.80
2019-05-03T05:35:06.806Z,9.80
2019-05-03T05:37:36.312Z,9.70
2019-05-03T05:40:06.670Z,9.70
2019-05-03T05:42:36.349Z,9.60
2019-05-03T05:45:06.253Z,9.60
2019-05-03T05:47:50.279Z,9.70
2019-05-03T05:50:32.118Z,9.60
2019-05-03T05:53:01.548Z,9.60
2019-05-03T05:56:01.986Z,9.60
2019-05-03T05:58:37.640Z,9.60
2019-05-03T06:01:28.849Z,9.50
2019-05-03T06:03:58.251Z,9.30
2019-05-03T06:06:46.905Z,9.20
2019-05-03T06:09:25.624Z,9.10
2019-05-03T06:11:59.083Z,9.10
2019-05-03T06:14:36.110Z,9.10
2019-05-03T06:17:14.673Z,9.00
2019-05-03T06:19:49.031Z,9.10
2019-05-03T06:22:37.386Z,9.20
2019-05-03T06:25:17.265Z,9.30
2019-05-03T06:27:47.022Z,9.30
2019-05-03T06:30:35.079Z,9.20
2019-05-03T06:33:05.374Z,9.30
2019-05-03T06:35:34.759Z,9.20
2019-05-03T06:38:04.941Z,9.10
2019-05-03T06:40:35.401Z,9.00
2019-05-03T06:43:09.779Z,9.10
2019-05-03T06:45:36.230Z,9.00
2019-05-03T06:48:05.637Z,9.00
2019-05-03T06:50:35.271Z,9.00
2019-05-03T06:53:10.342Z,8.90
2019-05-03T06:55:40.099Z,8.80
2019-05-03T06:58:07.277Z,8.70
2019-05-03T07:01:01.468Z,8.70
2019-05-03T07:04:02.592Z,8.70
2019-05-03T07:06:40.490Z,8.80
2019-05-03T07:09:40.154Z,8.90
2019-05-03T07:12:09.764Z,8.90
2019-05-03T07:14:39.190Z,9.00
2019-05-03T07:17:08.587Z,9.10
2019-05-03T07:19:38.703Z,9.20
2019-05-03T07:22:08.093Z,9.30
2019-05-03T07:24:40.621Z,9.40
2019-05-03T07:27:08.857Z,9.50
2019-05-03T07:29:38.634Z,9.40
2019-05-03T07:32:08.195Z,9.50
2019-05-03T07:34:37.599Z,9.40
2019-05-03T07:37:07.022Z,9.50
2019-05-03T07:39:36.706Z,9.50
2019-05-03T07:42:06.242Z,9.50
2019-05-03T07:44:36.610Z,9.60
2019-05-03T07:47:06.001Z,9.80
2019-05-03T07:49:35.806Z,10.10
2019-05-03T07:52:05.980Z,10.20
2019-05-03T07:54:35.476Z,10.20
2019-05-03T07:57:25.893Z,10.40
2019-05-03T07:59:55.699Z,10.20
2019-05-03T08:02:27.484Z,10.20
2019-05-03T08:04:56.722Z,10.40
2019-05-03T08:07:26.112Z,10.50
2019-05-03T08:09:55.719Z,10.80
2019-05-03T08:12:25.129Z,10.80
2019-05-03T08:14:55.152Z,10.90
2019-05-03T08:17:25.599Z,11.00
2019-05-03T08:19:55.510Z,10.80
2019-05-03T08:22:25.506Z,10.70
2019-05-03T08:24:55.708Z,11.00
2019-05-03T08:27:25.350Z,11.30
2019-05-03T08:29:55.696Z,11.80
2019-05-03T08:32:46.085Z,12.10
2019-05-03T08:35:28.122Z,11.90
2019-05-03T08:37:59.150Z,11.60
2019-05-03T08:40:32.213Z,11.70
2019-05-03T08:43:01.634Z,11.40
2019-05-03T08:45:31.329Z,11.70
2019-05-03T08:48:00.712Z,11.70
2019-05-03T08:50:30.180Z,12.20
2019-05-03T08:52:59.847Z,11.80
2019-05-03T08:55:31.320Z,12.20
2019-05-03T08:58:00.836Z,12.10
2019-05-03T09:00:31.856Z,12.30
2019-05-03T09:03:01.420Z,12.20
2019-05-03T09:05:30.819Z,12.50
2019-05-03T09:08:00.464Z,12.30
2019-05-03T09:10:48.830Z,12.70
2019-05-03T09:13:19.564Z,12.40
2019-05-03T09:15:49.452Z,12.70
2019-05-03T09:18:18.866Z,12.70
2019-05-03T09:20:48.562Z,12.70
2019-05-03T09:23:17.951Z,12.40
2019-05-03T09:25:47.626Z,12.30
2019-05-03T09:28:17.037Z,12.10
2019-05-03T09:30:46.517Z,12.40
2019-05-03T09:33:15.923Z,12.70
2019-05-03T09:35:45.866Z,12.90
2019-05-03T09:38:15.407Z,12.30
2019-05-03T09:40:45.381Z,12.10
2019-05-03T09:43:15.159Z,12.40
2019-05-03T09:45:45.713Z,12.90
2019-05-03T09:48:15.266Z,13.00
2019-05-03T09:50:45.316Z,12.90
2019-05-03T09:53:16.470Z,13.00
2019-05-03T09:55:45.871Z,13.20
2019-05-03T09:58:15.467Z,13.10
2019-05-03T10:00:45.293Z,13.00
2019-05-03T10:03:14.722Z,12.90
2019-05-03T10:05:45.832Z,13.20
2019-05-03T10:08:15.863Z,13.50
2019-05-03T10:11:05.276Z,13.70
2019-05-03T10:13:35.441Z,14.00
2019-05-03T10:16:06.176Z,13.90
2019-05-03T10:18:36.205Z,13.70
2019-05-03T10:21:05.925Z,13.50
2019-05-03T10:23:41.922Z,13.40
2019-05-03T10:26:11.403Z,13.60
2019-05-03T10:28:41.152Z,14.10
2019-05-03T10:31:11.077Z,14.50
2019-05-03T10:33:51.304Z,14.30
2019-05-03T10:36:20.977Z,14.20
2019-05-03T10:38:50.399Z,14.00
2019-05-03T10:41:20.021Z,14.20
2019-05-03T10:43:49.750Z,14.00
2019-05-03T10:46:19.188Z,13.70
2019-05-03T10:48:49.121Z,13.40
2019-05-03T10:51:19.340Z,13.40
2019-05-03T10:53:54.758Z,13.50
2019-05-03T10:56:31.337Z,13.60
2019-05-03T10:59:08.191Z,13.60
2019-05-03T11:01:55.342Z,14.40
2019-05-03T11:04:25.137Z,14.40
2019-05-03T11:06:55.157Z,14.60
2019-05-03T11:09:25.924Z,14.70
2019-05-03T11:11:55.875Z,14.30
2019-05-03T11:14:25.530Z,14.90
2019-05-03T11:16:55.489Z,14.20
2019-05-03T11:19:25.378Z,14.10
2019-05-03T11:21:54.997Z,14.40
2019-05-03T11:24:27.200Z,14.70
2019-05-03T11:27:00.031Z,15.20
2019-05-03T11:29:28.964Z,15.60
2019-05-03T11:32:17.575Z,15.40
2019-05-03T11:35:05.914Z,15.30
2019-05-03T11:37:46.194Z,15.40
2019-05-03T11:40:15.847Z,15.10
2019-05-03T11:42:45.376Z,15.60
2019-05-03T11:45:15.365Z,15.90
2019-05-03T11:47:45.727Z,15.80
2019-05-03T11:50:15.398Z,15.60
2019-05-03T11:52:47.210Z,15.10
2019-05-03T11:55:16.202Z,15.10
2019-05-03T11:57:45.642Z,14.80
2019-05-03T12:00:19.251Z,14.70
2019-05-03T12:03:10.724Z,14.90
2019-05-03T12:05:41.736Z,15.20
2019-05-03T12:08:11.256Z,15.40
2019-05-03T12:10:52.685Z,15.00
2019-05-03T12:13:28.972Z,15.20
2019-05-03T12:15:58.610Z,14.80
2019-05-03T12:18:28.745Z,14.90
2019-05-03T12:20:59.876Z,14.50
2019-05-03T12:23:31.550Z,15.00
2019-05-03T12:26:01.331Z,15.40
2019-05-03T12:28:31.398Z,15.70
2019-05-03T12:31:00.829Z,15.40
2019-05-03T12:33:30.220Z,15.60
2019-05-03T12:35:59.591Z,15.40
2019-05-03T12:38:29.290Z,15.70
2019-05-03T12:40:58.716Z,16.30
2019-05-03T12:43:28.734Z,16.30
2019-05-03T12:45:58.121Z,16.00
2019-05-03T12:48:27.544Z,15.70
2019-05-03T12:50:57.214Z,16.10
2019-05-03T12:53:27.204Z,16.30
2019-05-03T12:55:56.568Z,16.20
2019-05-03T12:58:47.061Z,16.80
2019-05-03T13:01:29.356Z,16.50
2019-05-03T13:04:05.726Z,16.50
2019-05-03T13:06:36.641Z,15.50
2019-05-03T13:09:07.370Z,15.70
2019-05-03T13:11:51.119Z,16.40
2019-05-03T13:14:09.821Z,16.80
2019-05-03T13:16:39.187Z,16.60
2019-05-03T13:19:08.908Z,16.70
2019-05-03T13:21:38.275Z,16.40
2019-05-03T13:24:07.814Z,16.30
2019-05-03T13:26:37.479Z,16.10
2019-05-03T13:29:06.851Z,16.50
2019-05-03T13:31:36.525Z,16.70
2019-05-03T13:34:06.273Z,17.10
2019-05-03T13:36:35.667Z,17.20
2019-05-03T13:39:14.079Z,16.50
2019-05-03T13:41:37.741Z,16.40
2019-05-03T13:44:07.142Z,16.20
2019-05-03T13:46:36.557Z,16.00
2019-05-03T13:49:08.686Z,16.10
2019-05-03T13:51:37.450Z,16.10
2019-05-03T13:54:06.803Z,16.20
2019-05-03T13:56:37.041Z,16.70
2019-05-03T13:59:18.521Z,16.10
2019-05-03T14:01:38.722Z,15.90
2019-05-03T14:04:08.392Z,16.30
2019-05-03T14:06:37.800Z,15.90
2019-05-03T14:09:08.079Z,15.70
2019-05-03T14:11:38.106Z,15.70
2019-05-03T14:14:07.531Z,15.90
2019-05-03T14:16:36.937Z,16.10
2019-05-03T14:19:12.245Z,16.20
2019-05-03T14:21:46.300Z,15.90
2019-05-03T14:24:16.001Z,15.80
2019-05-03T14:26:45.407Z,15.80
2019-05-03T14:29:15.173Z,15.90
2019-05-03T14:31:45.429Z,16.00
2019-05-03T14:34:17.335Z,15.50
2019-05-03T14:36:46.257Z,15.60
2019-05-03T14:39:15.677Z,15.50
2019-05-03T14:41:46.908Z,14.90
2019-05-03T14:44:18.051Z,15.00
2019-05-03T14:46:47.496Z,14.70
2019-05-03T14:49:16.909Z,14.90
2019-05-03T14:51:46.631Z,15.00
2019-05-03T14:54:16.214Z,15.10
2019-05-03T14:57:04.639Z,15.40
2019-05-03T14:59:51.361Z,15.30
2019-05-03T15:02:47.643Z,15.20
2019-05-03T15:05:14.918Z,15.20
2019-05-03T15:07:45.871Z,15.30
2019-05-03T15:10:15.409Z,15.10
2019-05-03T15:12:45.325Z,15.10
2019-05-03T15:15:14.848Z,15.50
2019-05-03T15:17:45.774Z,15.30
2019-05-03T15:20:15.486Z,15.60
2019-05-03T15:22:45.478Z,15.40
2019-05-03T15:25:15.366Z,15.50
2019-05-03T15:27:45.228Z,15.20
2019-05-03T15:30:15.705Z,15.20
2019-05-03T15:32:57.087Z,15.20
2019-05-03T15:35:16.667Z,15.20
2019-05-03T15:37:46.078Z,14.80
2019-05-03T15:40:15.711Z,14.80
2019-05-03T15:42:50.822Z,15.00
2019-05-03T15:45:37.847Z,15.70
2019-05-03T15:48:18.308Z,15.10
2019-05-03T15:50:48.060Z,15.20
2019-05-03T15:53:17.751Z,14.80
2019-05-03T15:55:47.218Z,14.50
2019-05-03T15:58:16.634Z,14.20
2019-05-03T16:00:46.745Z,14.30
2019-05-03T16:03:16.328Z,13.80
2019-05-03T16:05:45.730Z,13.70
2019-05-03T16:08:15.454Z,13.40
2019-05-03T16:10:45.708Z,13.20
2019-05-03T16:13:15.220Z,12.90
2019-05-03T16:15:44.709Z,12.60
2019-05-03T16:18:14.839Z,12.50
2019-05-03T16:20:45.038Z,12.40
2019-05-03T16:23:15.438Z,12.60
2019-05-03T16:25:45.023Z,12.70
2019-05-03T16:28:20.513Z,12.80
2019-05-03T16:30:56.915Z,13.00
2019-05-03T16:33:28.183Z,13.50
2019-05-03T16:35:57.354Z,13.90
2019-05-03T16:38:26.787Z,13.70
2019-05-03T16:40:56.160Z,13.80
2019-05-03T16:43:25.793Z,13.80
2019-05-03T16:45:55.552Z,13.70
2019-05-03T16:48:24.939Z,13.60
2019-05-03T16:50:54.310Z,13.30
2019-05-03T16:53:25.380Z,13.50
2019-05-03T16:55:55.178Z,13.70
2019-05-03T16:58:24.807Z,13.60
2019-05-03T17:00:55.340Z,13.60
2019-05-03T17:03:38.660Z,13.50
2019-05-03T17:06:32.292Z,13.30
2019-05-03T17:09:14.945Z,13.40
2019-05-03T17:11:45.888Z,13.50
2019-05-03T17:14:15.617Z,13.30
2019-05-03T17:16:45.255Z,13.40
2019-05-03T17:19:17.107Z,13.90
2019-05-03T17:21:45.720Z,13.90
2019-05-03T17:24:15.500Z,13.70
2019-05-03T17:26:45.042Z,13.50
2019-05-03T17:29:14.465Z,13.40
2019-05-03T17:31:44.478Z,13.40
2019-05-03T17:34:14.489Z,13.20
2019-05-03T17:36:45.064Z,13.10
2019-05-03T17:39:16.291Z,13.20
2019-05-03T17:42:07.766Z,13.30
2019-05-03T17:44:41.178Z,13.20
2019-05-03T17:47:10.896Z,13.10
2019-05-03T17:49:40.301Z,12.90
2019-05-03T17:52:28.667Z,12.90
2019-05-03T17:55:15.727Z,12.90
2019-05-03T17:58:02.206Z,12.80
2019-05-03T18:01:05.518Z,12.80
2019-05-03T18:03:37.830Z,12.70
2019-05-03T18:06:41.697Z,12.50
2019-05-03T18:09:34.421Z,12.40
2019-05-03T18:12:04.896Z,12.40
2019-05-03T18:14:34.571Z,12.40
2019-05-03T18:17:05.738Z,12.20
2019-05-03T18:19:35.052Z,12.10
2019-05-03T18:22:05.195Z,12.10
2019-05-03T18:24:35.286Z,12.00
2019-05-03T18:27:04.891Z,11.90
2019-05-03T18:29:34.581Z,11.90
2019-05-03T18:32:05.461Z,11.90
2019-05-03T18:34:34.920Z,11.90
2019-05-03T18:37:04.783Z,11.90
2019-05-03T18:39:34.667Z,11.80
2019-05-03T18:42:06.461Z,11.90
2019-05-03T18:44:56.861Z,11.90
2019-05-03T18:47:27.371Z,11.90
2019-05-03T18:49:57.358Z,11.90
2019-05-03T18:52:27.333Z,11.90
2019-05-03T18:54:57.041Z,11.90
2019-05-03T18:57:26.749Z,11.80
2019-05-03T18:59:56.441Z,11.80
2019-05-03T19:02:25.818Z,11.70
2019-05-03T19:04:55.991Z,11.80
2019-05-03T19:07:42.737Z,11.70
2019-05-03T19:10:31.114Z,11.60
2019-05-03T19:13:19.432Z,11.40
2019-05-03T19:15:49.123Z,11.30
2019-05-03T19:18:27.489Z,11.20
2019-05-03T19:20:56.998Z,11.10
2019-05-03T19:23:26.400Z,11.00
2019-05-03T19:25:55.790Z,11.00
2019-05-03T19:28:25.175Z,10.90
2019-05-03T19:30:55.024Z,10.90
2019-05-03T19:33:24.415Z,10.90
2019-05-03T19:35:55.032Z,11.00
2019-05-03T19:38:24.676Z,11.00
2019-05-03T19:40:54.846Z,11.00
2019-05-03T19:43:27.162Z,11.00
2019-05-03T19:45:56.094Z,11.00
2019-05-03T19:48:25.717Z,11.10
2019-05-03T19:50:55.115Z,11.00
2019-05-03T19:53:49.549Z,11.10
2019-05-03T19:56:20.303Z,11.10
2019-05-03T19:58:50.588Z,11.10
2019-05-03T20:01:36.387Z,11.10
2019-05-03T20:04:16.224Z,11.10
2019-05-03T20:06:52.961Z,11.10
2019-05-03T20:09:24.491Z,11.10
2019-05-03T20:11:55.259Z,11.10
2019-05-03T20:14:25.745Z,11.10
2019-05-03T20:16:55.502Z,11.20
2019-05-03T20:19:25.725Z,11.10
2019-05-03T20:21:56.684Z,11.10
2019-05-03T20:24:26.139Z,11.10
2019-05-03T20:26:55.558Z,11.10
2019-05-03T20:29:25.136Z,11.00
2019-05-03T20:31:55.228Z,11.00
2019-05-03T20:34:24.987Z,11.00
2019-05-03T20:36:54.847Z,10.90
2019-05-03T20:39:25.466Z,10.90
2019-05-03T20:41:55.157Z,10.90
2019-05-03T20:44:49.523Z,10.90
2019-05-03T20:47:26.256Z,11.00
2019-05-03T20:50:13.024Z,10.90
2019-05-03T20:52:44.325Z,11.00
2019-05-03T20:55:15.490Z,11.10
2019-05-03T20:57:45.122Z,11.10
2019-05-03T21:00:17.496Z,11.10
2019-05-03T21:02:53.459Z,11.10
2019-05-03T21:05:27.801Z,11.10
2019-05-03T21:07:49.307Z,11.10
2019-05-03T21:10:18.705Z,11.10
2019-05-03T21:12:48.142Z,11.10
2019-05-03T21:15:26.040Z,11.20
2019-05-03T21:18:04.907Z,11.20
2019-05-03T21:21:02.542Z,11.20
2019-05-03T21:23:35.367Z,11.30
2019-05-03T21:26:13.515Z,11.20
2019-05-03T21:28:40.957Z,11.20
2019-05-03T21:31:10.387Z,11.20
2019-05-03T21:33:39.816Z,11.20
2019-05-03T21:36:09.564Z,11.10
2019-05-03T21:38:40.905Z,11.10
2019-05-03T21:41:11.034Z,11.10
2019-05-03T21:43:40.716Z,11.10
2019-05-03T21:46:18.548Z,11.10
2019-05-03T21:49:05.663Z,11.10
2019-05-03T21:51:35.106Z,11.10
2019-05-03T21:54:06.567Z,11.10
2019-05-03T21:56:35.810Z,11.00
2019-05-03T21:59:05.687Z,11.10
2019-05-03T22:01:37.529Z,11.00
2019-05-03T22:04:07.038Z,11.00
2019-05-03T22:06:36.471Z,11.00
2019-05-03T22:09:06.713Z,11.00
2019-05-03T22:11:36.105Z,11.00
2019-05-03T22:14:08.910Z,11.00
2019-05-03T22:16:50.512Z,11.00
2019-05-03T22:19:20.145Z,11.00
2019-05-03T22:21:58.309Z,11.00
2019-05-03T22:24:33.612Z,11.00
2019-05-03T22:27:07.017Z,11.00
2019-05-03T22:29:36.443Z,10.90
2019-05-03T22:32:06.322Z,10.90
2019-05-03T22:34:35.718Z,10.90
2019-05-03T22:37:05.219Z,10.80
2019-05-03T22:39:34.852Z,10.80
2019-05-03T22:42:04.636Z,10.80
2019-05-03T22:44:35.623Z,10.80
2019-05-03T22:47:05.578Z,10.70
2019-05-03T22:49:37.158Z,10.70
2019-05-03T22:52:06.083Z,10.60
2019-05-03T22:54:35.744Z,10.60
2019-05-03T22:57:05.150Z,10.60
2019-05-03T22:59:34.808Z,10.60
2019-05-03T23:02:04.210Z,10.60
2019-05-03T23:04:35.469Z,10.60
2019-05-03T23:07:05.550Z,10.60
2019-05-03T23:09:35.314Z,10.60
2019-05-03T23:12:05.528Z,10.60
2019-05-03T23:14:34.975Z,10.60
2019-05-03T23:17:04.352Z,10.60
2019-05-03T23:19:35.492Z,10.60
2019-05-03T23:22:11.686Z,10.50
2019-05-03T23:24:41.073Z,10.60
2019-05-03T23:27:10.791Z,10.50
2019-05-03T23:29:40.233Z,10.50
2019-05-03T23:32:09.881Z,10.50
2019-05-03T23:34:39.639Z,10.50
2019-05-03T23:37:09.018Z,10.40
2019-05-03T23:39:38.407Z,10.40
2019-05-03T23:42:08.077Z,10.40
2019-05-03T23:44:37.759Z,10.40
2019-05-03T23:47:38.194Z,10.30
2019-05-03T23:50:09.804Z,10.30
2019-05-03T23:52:39.475Z,10.30
2019-05-03T23:55:25.520Z,10.30
2019-05-03T23:57:55.390Z,10.30
